Time;durP1;ratioP1;P1;durP2;ratioP2;P2;SDS_P1;SDS_P2;PMS_P1;PMS_P2;Temp;Humidity;BMP_temperature;BMP_pressure;BME280_temperature;BME280_humidity;BME280_pressure;Samples;Min_cycle;Max_cycle;Signal;HPM_P1;HPM_P2
2022/08/11 00:01:24;;;;;;;1.13;1.02;;;24.10;65.00;;;;;;6213337;22;43252;-61
2022/08/11 00:03:55;;;;;;;;;;;24.10;64.90;;;;;;6213835;22;43324;-61
2022/08/11 00:06:30;;;;;;;1.48;1.13;;;24.10;65.60;;;;;;6212406;22;44245;-61
2022/08/11 00:08:59;;;;;;;1.40;1.30;;;24.10;65.00;;;;;;6213257;22;43271;-61
2022/08/11 00:11:43;;;;;;;1.10;1.10;;;24.10;65.00;;;;;;6212057;22;43271;-61
2022/08/11 00:14:18;;;;;;;1.05;1.05;;;24.10;65.00;;;;;;6211332;22;43384;-61
2022/08/11 00:16:57;;;;;;;1.10;1.00;;;24.10;64.90;;;;;;6212977;22;44916;-61
2022/08/11 00:19:38;;;;;;;1.00;1.00;;;24.10;64.90;;;;;;6211875;22;43940;-61
2022/08/11 00:22:27;;;;;;;1.17;1.05;;;24.10;65.00;;;;;;6213027;22;43311;-61
2022/08/11 00:24:56;;;;;;;1.05;1.00;;;24.00;64.90;;;;;;6213462;22;43851;-61
2022/08/11 00:27:37;;;;;;;1.20;1.10;;;24.00;64.90;;;;;;6212120;22;44598;-61
2022/08/11 00:30:07;;;;;;;1.00;1.00;;;24.00;64.90;;;;;;6211909;22;43981;-61
2022/08/11 00:32:40;;;;;;;1.30;1.20;;;24.00;64.90;;;;;;6212791;22;43305;-61
2022/08/11 00:35:12;;;;;;;1.17;1.17;;;24.00;64.90;;;;;;6185405;22;43320;-62
2022/08/11 00:38:01;;;;;;;1.20;1.20;;;24.00;64.90;;;;;;6213083;22;43757;-61
2022/08/11 00:41:00;;;;;;;1.17;1.17;;;24.00;65.00;;;;;;6211727;22;43682;-61
2022/08/11 00:43:50;;;;;;;1.35;1.25;;;24.00;64.90;;;;;;6185978;22;43303;-61
2022/08/11 00:46:41;;;;;;;1.00;1.00;;;24.00;64.90;;;;;;6213315;22;43239;-62
2022/08/11 00:49:20;;;;;;;;;;;24.00;65.60;;;;;;6212172;22;43761;-61
2022/08/11 00:52:04;;;;;;;0.80;0.80;;;24.00;65.00;;;;;;6212802;22;43422;-61
2022/08/11 00:54:47;;;;;;;1.15;1.05;;;23.90;64.90;;;;;;6212578;22;43283;-61
2022/08/11 00:57:34;;;;;;;2.10;1.17;;;23.90;65.00;;;;;;6212640;22;43276;-61
2022/08/11 01:00:22;;;;;;;0.88;0.88;;;23.90;64.90;;;;;;6212684;22;44842;-61
2022/08/11 01:03:16;;;;;;;1.00;1.00;;;23.90;64.90;;;;;;6212126;22;43894;-61
2022/08/11 01:06:27;;;;;;;0.88;0.88;;;23.90;64.90;;;;;;6213069;22;43228;-61
2022/08/11 01:09:27;;;;;;;0.98;0.98;;;23.90;64.80;;;;;;6212403;22;43287;-62
2022/08/11 01:12:20;;;;;;;0.80;0.80;;;23.90;64.90;;;;;;6212490;22;43834;-62
2022/08/11 01:15:25;;;;;;;1.00;1.00;;;23.90;64.90;;;;;;6212765;22;43891;-63
2022/08/11 01:18:25;;;;;;;1.08;1.00;;;23.90;64.90;;;;;;6185903;22;43246;-62
2022/08/11 01:21:13;;;;;;;0.90;0.90;;;23.90;64.80;;;;;;6187001;22;43290;-61
2022/08/11 01:24:05;;;;;;;1.02;0.88;;;23.90;64.90;;;;;;6211690;22;43734;-63
2022/08/11 01:26:54;;;;;;;1.10;0.85;;;23.90;65.50;;;;;;6211748;22;43647;-61
2022/08/11 01:29:36;;;;;;;0.80;0.80;;;23.90;65.20;;;;;;6212561;22;43364;-61
2022/08/11 01:32:12;;;;;;;0.90;0.90;;;23.90;64.90;;;;;;6210108;22;43341;-61
2022/08/11 01:35:07;;;;;;;0.80;0.80;;;23.80;64.80;;;;;;6211982;22;44014;-61
2022/08/11 01:38:23;;;;;;;0.70;0.70;;;23.90;64.80;;;;;;6212086;22;43939;-62
2022/08/11 01:41:25;;;;;;;0.82;0.80;;;23.80;64.80;;;;;;6098803;22;43339;-61
2022/08/11 01:44:38;;;;;;;0.80;0.80;;;23.90;64.90;;;;;;6164995;22;43422;-61
2022/08/11 01:51:05;;;;;;;1.00;0.93;;;23.80;64.80;;;;;;6211672;22;44030;-61
2022/08/11 01:53:41;;;;;;;1.05;1.00;;;23.80;64.80;;;;;;6176054;22;43260;-63
2022/08/11 01:56:23;;;;;;;0.88;0.88;;;23.80;64.80;;;;;;6213072;22;43219;-61
2022/08/11 01:59:07;;;;;;;0.80;0.80;;;23.80;64.80;;;;;;6211798;22;44684;-62
2022/08/11 02:02:03;;;;;;;0.80;0.80;;;23.80;64.80;;;;;;6212075;22;43651;-61
2022/08/11 02:05:02;;;;;;;0.80;0.80;;;23.80;64.80;;;;;;6212763;22;43299;-61
2022/08/11 02:07:46;;;;;;;0.82;0.82;;;23.80;64.80;;;;;;6212137;22;43273;-61
2022/08/11 02:13:43;;;;;;;0.60;0.60;;;23.70;64.80;;;;;;6211562;22;43653;-61
2022/08/11 02:16:17;;;;;;;0.77;0.77;;;23.80;64.80;;;;;;6208464;22;43303;-61
2022/08/11 02:24:54;;;;;;;0.90;0.85;;;23.70;64.80;;;;;;6212086;22;43293;-62
2022/08/11 02:27:29;;;;;;;0.90;0.90;;;23.70;64.80;;;;;;6211499;22;43259;-61
2022/08/11 02:30:06;;;;;;;0.88;0.88;;;23.70;64.80;;;;;;6212033;22;43329;-61
2022/08/11 02:33:23;;;;;;;0.90;0.90;;;23.70;64.80;;;;;;6211583;22;45046;-62
2022/08/11 02:36:21;;;;;;;0.90;0.90;;;23.70;64.70;;;;;;6212262;22;43903;-61
2022/08/11 02:39:09;;;;;;;0.60;0.60;;;23.70;64.70;;;;;;6213333;22;43297;-61
2022/08/11 02:44:54;;;;;;;1.00;1.00;;;23.70;64.80;;;;;;6186355;22;44570;-62
2022/08/11 02:49:52;;;;;;;0.90;0.90;;;23.60;64.70;;;;;;6212747;22;43909;-62
2022/08/11 02:50:56;;;;;;;0.80;0.80;;;23.60;64.70;;;;;;6185285;22;43425;-61
2022/08/11 02:53:36;;;;;;;0.70;0.70;;;23.60;64.70;;;;;;6188657;22;43324;-62
2022/08/11 02:56:26;;;;;;;0.85;0.85;;;23.60;64.80;;;;;;6212509;22;43779;-61
2022/08/11 03:02:30;;;;;;;0.90;0.90;;;23.60;64.70;;;;;;6212357;22;43343;-61
2022/08/11 03:04:57;;;;;;;1.00;1.00;;;23.60;64.70;;;;;;6214003;22;43383;-61
2022/08/11 03:07:51;;;;;;;0.77;0.77;;;23.60;64.70;;;;;;6213529;22;44644;-61
2022/08/11 03:10:22;;;;;;;1.00;0.90;;;23.60;64.70;;;;;;6142490;22;43674;-62
2022/08/11 03:19:45;;;;;;;0.82;0.82;;;23.50;64.60;;;;;;6213093;22;44022;-61
2022/08/11 03:22:21;;;;;;;0.95;0.95;;;23.50;64.60;;;;;;6155779;22;43343;-61
2022/08/11 03:25:30;;;;;;;1.10;0.93;;;23.50;64.70;;;;;;6213084;22;43268;-62
2022/08/11 03:28:16;;;;;;;0.70;0.70;;;23.50;64.60;;;;;;6213666;22;43532;-61
2022/08/11 03:30:56;;;;;;;0.88;0.88;;;23.50;64.70;;;;;;6212015;22;43996;-61
2022/08/11 03:34:03;;;;;;;0.98;0.70;;;23.50;64.70;;;;;;6213263;22;43321;-61
2022/08/11 03:37:47;;;;;;;0.80;0.80;;;23.50;64.70;;;;;;6212880;22;43340;-62
2022/08/11 03:43:47;;;;;;;0.80;0.80;;;23.50;64.80;;;;;;6162192;22;44604;-61
2022/08/11 03:47:02;;;;;;;1.00;1.00;;;23.50;64.70;;;;;;6212963;22;43929;-61
2022/08/11 03:49:54;;;;;;;0.90;0.90;;;23.40;64.70;;;;;;6060670;23;43369;-62
2022/08/11 03:52:40;;;;;;;0.60;0.60;;;23.40;64.70;;;;;;6211421;22;43304;-61
2022/08/11 03:55:30;;;;;;;0.75;0.70;;;23.40;64.70;;;;;;6212947;22;43752;-61
2022/08/11 03:58:31;;;;;;;0.95;0.95;;;23.40;64.60;;;;;;6194556;22;43897;-61
2022/08/11 04:01:27;;;;;;;0.80;0.80;;;23.40;64.70;;;;;;6212583;22;43212;-61
2022/08/11 04:04:14;;;;;;;0.80;0.80;;;23.40;64.60;;;;;;6213573;22;43401;-62
2022/08/11 04:06:59;;;;;;;0.80;0.80;;;23.40;64.70;;;;;;6212430;22;43967;-62
2022/08/11 04:10:04;;;;;;;0.80;0.80;;;23.40;64.70;;;;;;6212364;22;43740;-61
2022/08/11 04:12:58;;;;;;;0.88;0.88;;;23.40;64.60;;;;;;6211517;22;43261;-61
2022/08/11 04:18:58;;;;;;;0.60;0.60;;;23.40;64.70;;;;;;6212329;22;44578;-62
2022/08/11 04:21:37;;;;;;;0.82;0.82;;;23.40;64.70;;;;;;6212604;22;43703;-62
2022/08/11 04:24:08;;;;;;;0.85;0.85;;;23.30;64.70;;;;;;6186037;22;43664;-62
2022/08/11 04:27:17;;;;;;;0.80;0.80;;;23.40;64.80;;;;;;6212715;22;43301;-62
2022/08/11 04:30:05;;;;;;;0.70;0.70;;;23.40;64.80;;;;;;6212182;22;44874;-61
2022/08/11 04:32:49;;;;;;;0.70;0.70;;;23.30;64.60;;;;;;6192428;22;43670;-62
2022/08/11 04:35:43;;;;;;;0.80;0.80;;;23.30;64.60;;;;;;6212769;22;43275;-62
2022/08/11 04:38:23;;;;;;;0.80;0.80;;;23.30;64.70;;;;;;6213316;22;43266;-62
2022/08/11 04:43:19;;;;;;;0.80;0.77;;;23.30;64.70;;;;;;6211534;22;44025;-62
2022/08/11 04:44:30;;;;;;;0.90;0.90;;;23.30;64.60;;;;;;6212478;22;43603;-61
2022/08/11 05:02:30;;;;;;;0.60;0.60;;;23.20;64.70;;;;;;6211855;22;43783;-62
2022/08/11 05:05:36;;;;;;;0.70;0.70;;;23.20;64.70;;;;;;6213077;22;44968;-62
2022/08/11 05:08:40;;;;;;;0.77;0.77;;;23.20;64.80;;;;;;6089220;22;43263;-61
2022/08/11 05:11:46;;;;;;;0.77;0.77;;;23.20;64.70;;;;;;6212341;22;43298;-62
2022/08/11 05:34:54;;;;;;;0.70;0.70;;;23.10;64.80;;;;;;6212889;22;43226;-62
2022/08/11 05:37:32;;;;;;;0.85;0.80;;;23.10;64.80;;;;;;6211863;22;43265;-62
2022/08/11 05:57:37;;;;;;;0.60;0.60;;;23.10;64.90;;;;;;6211829;22;43232;-62
2022/08/11 06:00:19;;;;;;;0.95;0.73;;;23.10;64.80;;;;;;6212228;22;43254;-62
2022/08/11 06:03:01;;;;;;;0.70;0.70;;;23.10;64.90;;;;;;6212133;22;44836;-62
2022/08/11 06:05:43;;;;;;;1.00;0.57;;;23.10;64.90;;;;;;6211181;22;43827;-62
2022/08/11 06:08:13;;;;;;;0.70;0.70;;;23.10;64.90;;;;;;6212722;22;43313;-62
2022/08/11 06:10:43;;;;;;;0.73;0.73;;;23.10;65.00;;;;;;6212054;22;43272;-61
2022/08/11 06:13:15;;;;;;;0.50;0.50;;;23.10;65.00;;;;;;6211964;22;43783;-62
2022/08/11 06:15:46;;;;;;;0.75;0.65;;;23.10;65.00;;;;;;6213546;22;43879;-62
2022/08/11 06:18:14;;;;;;;0.80;0.80;;;23.10;65.00;;;;;;6213374;22;43248;-62
2022/08/11 06:20:55;;;;;;;0.70;0.70;;;23.10;65.00;;;;;;6213465;22;43287;-61
2022/08/11 06:23:24;;;;;;;;;;;23.10;65.00;;;;;;6214444;22;43747;-61
2022/08/11 06:25:52;;;;;;;0.80;0.80;;;23.00;65.00;;;;;;6212575;22;43203;-60
2022/08/11 06:28:38;;;;;;;0.70;0.70;;;23.00;65.10;;;;;;6213744;22;43280;-62
2022/08/11 06:31:12;;;;;;;0.85;0.85;;;23.00;65.00;;;;;;6212804;22;43418;-61
2022/08/11 06:34:03;;;;;;;0.95;0.90;;;23.00;65.00;;;;;;6212805;22;43991;-62
2022/08/11 06:36:43;;;;;;;;;;;23.00;65.10;;;;;;6187281;22;43877;-62
2022/08/11 06:39:27;;;;;;;1.00;1.00;;;23.00;65.10;;;;;;6212801;22;43304;-61
2022/08/11 06:42:08;;;;;;;0.90;0.90;;;23.00;65.10;;;;;;6213613;22;43391;-62
2022/08/11 06:45:22;;;;;;;1.08;1.08;;;23.00;65.10;;;;;;6186379;22;44884;-61
2022/08/11 06:47:50;;;;;;;0.80;0.80;;;23.00;65.10;;;;;;6212591;22;43924;-61
2022/08/11 06:53:11;;;;;;;0.88;0.88;;;23.00;65.10;;;;;;6212482;22;43285;-62
2022/08/11 07:01:51;;;;;;;1.20;1.20;;;23.00;65.10;;;;;;6211573;22;43272;-62
2022/08/11 07:04:38;;;;;;;0.80;0.80;;;22.90;65.10;;;;;;6147148;22;43689;-61
2022/08/11 07:16:27;;;;;;;1.08;1.08;;;23.00;65.10;;;;;;6212564;22;43406;-62
2022/08/11 07:30:41;;;;;;;1.02;0.93;;;23.00;65.00;;;;;;6212208;22;44671;-61
2022/08/11 07:33:10;;;;;;;1.10;1.00;;;23.00;65.00;;;;;;6212836;22;43252;-61
2022/08/11 07:36:00;;;;;;;0.90;0.90;;;23.00;65.00;;;;;;6212979;22;43226;-61
2022/08/11 07:38:44;;;;;;;1.00;1.00;;;23.00;65.00;;;;;;6213066;22;43301;-62
2022/08/11 07:41:15;;;;;;;1.20;1.15;;;23.00;65.00;;;;;;6212533;22;44736;-61
2022/08/11 07:43:50;;;;;;;1.10;1.00;;;23.00;65.00;;;;;;6212198;22;43856;-60
2022/08/11 07:54:42;;;;;;;1.05;1.05;;;23.10;64.90;;;;;;6212668;22;43659;-60
2022/08/11 08:20:13;;;;;;;1.45;1.30;;;23.20;64.90;;;;;;6212487;22;43247;-60
2022/08/11 08:22:41;;;;;;;1.23;1.08;;;23.20;64.90;;;;;;6212909;22;43333;-60
2022/08/11 08:25:16;;;;;;;1.20;1.20;;;23.20;64.80;;;;;;6212110;22;44014;-62
2022/08/11 08:27:44;;;;;;;1.25;1.25;;;23.20;64.80;;;;;;6212739;22;43626;-60
2022/08/11 08:32:59;;;;;;;1.38;1.27;;;23.20;64.90;;;;;;6212243;22;43297;-62
2022/08/11 08:35:29;;;;;;;1.13;1.13;;;23.20;64.80;;;;;;6212378;22;43764;-60
2022/08/11 08:37:59;;;;;;;2.45;1.20;;;23.20;64.80;;;;;;6213273;22;43324;-61
2022/08/11 08:40:28;;;;;;;1.35;1.25;;;23.20;64.80;;;;;;6210956;22;43349;-60
2022/08/11 08:43:00;;;;;;;1.23;1.23;;;23.30;64.80;;;;;;6212823;22;43751;-62
2022/08/11 08:45:28;;;;;;;1.13;1.10;;;23.20;64.80;;;;;;6160831;22;45249;-62
2022/08/11 08:47:56;;;;;;;0.82;0.82;;;23.20;64.80;;;;;;6212187;22;43822;-62
2022/08/11 08:51:32;;;;;;;1.10;1.10;;;23.20;64.80;;;;;;6212168;22;43416;-60
2022/08/11 08:53:28;;;;;;;1.10;1.10;;;23.20;64.70;;;;;;6211723;22;43352;-62
2022/08/11 08:56:00;;;;;;;1.40;1.30;;;23.30;64.90;;;;;;6212833;22;44642;-60
2022/08/11 08:58:32;;;;;;;1.30;1.20;;;23.30;64.90;;;;;;6212262;22;43883;-61
2022/08/11 09:01:00;;;;;;;1.52;1.30;;;23.30;64.90;;;;;;6211878;22;43315;-61
2022/08/11 09:03:28;;;;;;;1.33;1.33;;;23.30;65.00;;;;;;6212549;22;43664;-61
2022/08/11 09:06:16;;;;;;;1.77;1.30;;;23.40;65.10;;;;;;6212818;22;43804;-61
2022/08/11 09:08:45;;;;;;;1.20;1.10;;;23.30;65.10;;;;;;6211836;22;43337;-61
2022/08/11 09:14:08;;;;;;;1.33;1.20;;;23.30;65.10;;;;;;6212254;22;43378;-61
2022/08/11 09:16:43;;;;;;;1.60;1.50;;;23.30;65.10;;;;;;6212506;22;43704;-62
2022/08/11 09:19:16;;;;;;;1.52;1.10;;;23.40;65.20;;;;;;6212110;22;43930;-61
2022/08/11 09:27:24;;;;;;;1.30;1.30;;;23.40;65.10;;;;;;6212629;22;44903;-62
2022/08/11 09:29:52;;;;;;;1.10;1.10;;;23.40;65.10;;;;;;6211285;22;43624;-61
2022/08/11 09:32:21;;;;;;;1.42;1.00;;;23.50;65.20;;;;;;6211992;22;43785;-61
2022/08/11 09:34:50;;;;;;;1.75;1.30;;;23.50;65.10;;;;;;6212358;22;43454;-62
2022/08/11 09:40:29;;;;;;;1.60;1.50;;;23.50;65.10;;;;;;6211759;22;43763;-61
2022/08/11 09:45:50;;;;;;;1.77;1.67;;;23.50;65.10;;;;;;6212472;22;43846;-61
2022/08/11 09:48:23;;;;;;;1.50;1.40;;;23.60;65.00;;;;;;6211439;22;43989;-62
2022/08/11 09:50:54;;;;;;;1.20;1.20;;;23.60;65.00;;;;;;6211027;22;43622;-62
2022/08/11 09:53:24;;;;;;;1.52;1.42;;;23.60;65.00;;;;;;6212436;22;43287;-61
2022/08/11 09:58:52;;;;;;;1.30;1.20;;;23.60;64.90;;;;;;6212263;22;44673;-57
2022/08/11 10:01:28;;;;;;;1.42;1.30;;;23.60;64.70;;;;;;6211749;22;43618;-62
2022/08/11 10:04:14;;;;;;;1.90;1.27;;;23.60;64.80;;;;;;6185230;22;43763;-61
2022/08/11 10:07:02;;;;;;;1.20;1.20;;;23.60;64.80;;;;;;6206032;22;43240;-61
2022/08/11 10:09:45;;;;;;;1.60;1.30;;;23.70;64.90;;;;;;6208103;22;43831;-61
2022/08/11 10:12:31;;;;;;;1.48;1.38;;;23.70;64.90;;;;;;6206920;22;43324;-62
2022/08/11 10:20:44;;;;;;;1.48;1.20;;;23.80;64.70;;;;;;6207585;22;44881;-61
2022/08/11 10:28:44;;;;;;;1.30;1.20;;;23.90;64.80;;;;;;6207837;22;44178;-61
2022/08/11 10:34:28;;;;;;;1.30;1.20;;;23.90;64.70;;;;;;6207591;22;43948;-61
2022/08/11 10:37:01;;;;;;;1.77;1.25;;;23.90;64.60;;;;;;6208112;22;43264;-62
2022/08/11 10:39:30;;;;;;;1.70;1.60;;;23.90;64.60;;;;;;6207402;22;43349;-61
2022/08/11 10:47:33;;;;;;;1.55;1.45;;;24.00;64.50;;;;;;6207867;22;43324;-61
2022/08/11 10:47:58;;;;;;;2.05;1.23;;;24.00;64.40;;;;;;6208716;22;43203;-61
2022/08/11 10:58:50;;;;;;;1.35;1.35;;;24.10;64.40;;;;;;6208202;22;43723;-61
2022/08/11 11:01:23;;;;;;;1.05;1.05;;;24.10;64.30;;;;;;6208744;22;43353;-61
2022/08/11 11:03:57;;;;;;;1.15;1.15;;;24.10;64.40;;;;;;6213412;22;44885;-61
2022/08/11 11:06:31;;;;;;;1.23;1.20;;;24.20;64.50;;;;;;6212433;22;43873;-62
2022/08/11 11:09:07;;;;;;;1.20;1.10;;;24.20;64.40;;;;;;6213995;22;43770;-61
2022/08/11 11:20:44;;;;;;;1.08;1.08;;;24.30;64.40;;;;;;6148998;23;43298;-61
2022/08/11 11:23:19;;;;;;;1.30;1.20;;;24.30;64.50;;;;;;6207794;22;43345;-61
2022/08/11 11:26:11;;;;;;;1.52;1.42;;;24.30;64.40;;;;;;6213316;22;44951;-62
2022/08/11 11:28:45;;;;;;;1.63;1.30;;;24.40;64.30;;;;;;6184981;22;43367;-61
2022/08/11 11:31:44;;;;;;;1.20;1.10;;;24.40;64.30;;;;;;6212888;22;43289;-61
2022/08/11 11:34:39;;;;;;;1.05;1.05;;;24.40;64.30;;;;;;6213137;22;43774;-61
2022/08/11 11:37:22;;;;;;;1.25;1.17;;;24.40;64.10;;;;;;6212979;22;44007;-61
2022/08/11 11:39:53;;;;;;;1.40;1.23;;;24.50;64.30;;;;;;6212593;22;44412;-61
2022/08/11 11:42:22;;;;;;;1.90;1.20;;;24.50;64.10;;;;;;6211802;22;43248;-62
2022/08/11 11:44:49;;;;;;;1.30;1.20;;;24.50;64.10;;;;;;6213375;22;43319;-61
2022/08/11 11:47:23;;;;;;;1.10;1.10;;;24.60;64.10;;;;;;6212822;22;44963;-62
2022/08/11 11:49:51;;;;;;;1.08;1.08;;;24.60;64.10;;;;;;6184944;22;43372;-62
2022/08/11 11:52:21;;;;;;;1.15;0.93;;;24.60;64.10;;;;;;6212714;22;43327;-61
2022/08/11 11:54:52;;;;;;;1.50;1.23;;;24.60;64.10;;;;;;6213085;22;43415;-62
2022/08/11 12:03:12;;;;;;;1.20;1.20;;;24.70;64.20;;;;;;6210966;22;43295;-61
2022/08/11 12:05:42;;;;;;;1.40;1.30;;;24.70;64.00;;;;;;6213044;22;43276;-61
2022/08/11 12:08:18;;;;;;;1.20;1.10;;;24.80;64.00;;;;;;6213257;22;44913;-62
2022/08/11 12:13:51;;;;;;;1.10;1.10;;;24.80;63.90;;;;;;6212746;22;43263;-62
2022/08/11 12:16:21;;;;;;;1.20;1.20;;;24.90;64.00;;;;;;6212935;22;43400;-62
2022/08/11 12:19:10;;;;;;;1.45;1.13;;;24.90;64.00;;;;;;6212956;22;43915;-60
2022/08/11 12:27:19;;;;;;;1.20;1.10;;;24.90;64.00;;;;;;6212333;22;43892;-62
2022/08/11 12:27:22;;;;;;;1.63;1.00;;;24.90;64.10;;;;;;6212842;22;43213;-62
2022/08/11 12:29:58;;;;;;;1.40;1.10;;;25.00;64.10;;;;;;6212511;22;44801;-60
2022/08/11 12:32:29;;;;;;;1.10;1.00;;;25.00;64.00;;;;;;6211333;22;43335;-62
2022/08/11 12:34:57;;;;;;;0.90;0.90;;;25.10;63.90;;;;;;6212984;22;43249;-62
2022/08/11 12:37:30;;;;;;;1.17;1.15;;;25.10;63.90;;;;;;6212764;22;43481;-61
2022/08/11 12:46:12;;;;;;;1.20;1.10;;;25.10;63.90;;;;;;6212155;22;43172;-62
2022/08/11 12:51:58;;;;;;;1.30;1.25;;;25.20;63.80;;;;;;6212304;22;43990;-62
2022/08/11 12:55:00;;;;;;;1.42;1.20;;;25.20;63.80;;;;;;6212489;22;43897;-62
2022/08/11 13:06:01;;;;;;;1.35;1.25;;;25.40;63.90;;;;;;6212258;22;43642;-62
2022/08/11 13:08:32;;;;;;;1.50;1.40;;;25.40;64.00;;;;;;6212223;22;43236;-61
2022/08/11 13:13:49;;;;;;;1.25;1.17;;;25.40;63.80;;;;;;6211425;22;44585;-61
2022/08/11 13:19:31;;;;;;;1.33;1.10;;;25.50;63.80;;;;;;6212650;22;43304;-61
2022/08/11 13:22:01;;;;;;;2.35;1.30;;;25.50;63.90;;;;;;6211633;22;43261;-62
2022/08/11 13:24:32;;;;;;;1.27;1.17;;;25.60;64.00;;;;;;6212286;22;45229;-61
2022/08/11 13:27:01;;;;;;;1.40;1.30;;;25.50;63.80;;;;;;6212124;22;43701;-62
2022/08/11 13:29:29;;;;;;;1.40;1.30;;;25.60;63.80;;;;;;6212383;22;43265;-61
2022/08/11 13:31:58;;;;;;;1.20;1.20;;;25.70;63.80;;;;;;6212255;22;43307;-61
2022/08/11 13:34:29;;;;;;;1.13;1.13;;;25.70;63.90;;;;;;6211154;22;43981;-61
2022/08/11 13:37:00;;;;;;;1.60;1.50;;;25.70;63.80;;;;;;6212625;22;43870;-62
2022/08/11 13:39:30;;;;;;;1.20;1.10;;;25.70;63.80;;;;;;6212575;22;43210;-61
2022/08/11 13:42:00;;;;;;;1.50;1.40;;;25.80;63.80;;;;;;6211853;22;43359;-62
2022/08/11 13:44:32;;;;;;;2.00;1.50;;;25.70;63.80;;;;;;6212020;22;43735;-62
2022/08/11 13:47:05;;;;;;;1.80;1.25;;;25.80;63.80;;;;;;6212418;22;43891;-62
2022/08/11 13:49:36;;;;;;;1.27;1.17;;;25.80;63.70;;;;;;6211609;22;43277;-61
2022/08/11 13:52:11;;;;;;;1.25;1.15;;;25.90;63.90;;;;;;6212188;22;43308;-62
2022/08/11 13:54:41;;;;;;;1.73;1.30;;;25.90;63.70;;;;;;6211926;22;44022;-63
2022/08/11 13:57:11;;;;;;;1.13;1.08;;;25.90;63.70;;;;;;6211548;22;43308;-62
2022/08/11 13:59:55;;;;;;;1.85;1.33;;;25.90;63.70;;;;;;6212348;22;43405;-61
2022/08/11 14:02:30;;;;;;;1.35;1.25;;;26.00;63.80;;;;;;6211304;22;43407;-62
2022/08/11 14:05:06;;;;;;;1.25;1.15;;;26.00;63.70;;;;;;6212401;22;43794;-62
2022/08/11 14:07:38;;;;;;;1.40;1.20;;;26.00;63.70;;;;;;6212258;22;43883;-62
2022/08/11 14:10:10;;;;;;;1.20;1.20;;;26.00;63.70;;;;;;6211313;22;43160;-63
2022/08/11 14:15:33;;;;;;;1.40;1.30;;;26.00;63.60;;;;;;6185123;22;45416;-62
2022/08/11 14:18:12;;;;;;;1.10;1.10;;;26.10;63.80;;;;;;6211757;22;43625;-62
2022/08/11 14:23:43;;;;;;;1.08;1.08;;;26.10;63.70;;;;;;6210612;22;43336;-62
2022/08/11 14:26:25;;;;;;;1.83;1.23;;;26.10;63.60;;;;;;6211853;22;43948;-62
2022/08/11 14:29:08;;;;;;;1.40;1.30;;;26.10;63.60;;;;;;6211891;22;43929;-62
2022/08/11 14:31:57;;;;;;;1.50;1.40;;;26.10;63.60;;;;;;6210975;22;43209;-62
2022/08/11 14:34:28;;;;;;;1.42;1.17;;;26.20;63.60;;;;;;6212966;22;43239;-62
2022/08/11 14:36:59;;;;;;;1.00;1.00;;;26.20;63.60;;;;;;6213811;22;43970;-63
2022/08/11 14:39:29;;;;;;;1.50;1.27;;;26.20;63.50;;;;;;6212539;22;43757;-63
2022/08/11 14:47:49;;;;;;;1.40;1.30;;;26.30;63.70;;;;;;6213323;22;43764;-62
2022/08/11 14:50:22;;;;;;;1.40;1.30;;;26.30;63.70;;;;;;6213110;22;43681;-62
2022/08/11 14:52:54;;;;;;;1.23;1.13;;;26.30;63.70;;;;;;6212354;22;43233;-63
2022/08/11 14:58:14;;;;;;;1.33;1.23;;;26.30;63.70;;;;;;6213283;22;43752;-63
2022/08/11 15:00:44;;;;;;;1.17;1.17;;;26.40;64.30;;;;;;6212218;22;43642;-62
2022/08/11 15:03:13;;;;;;;1.83;1.23;;;26.40;63.60;;;;;;6213158;22;43280;-62
2022/08/11 15:05:49;;;;;;;1.30;1.20;;;26.40;63.60;;;;;;6212826;22;43400;-62
2022/08/11 15:08:55;;;;;;;1.20;1.10;;;26.40;63.70;;;;;;6213122;22;44972;-62
2022/08/11 15:17:06;;;;;;;1.00;1.00;;;26.40;63.70;;;;;;6212237;22;43288;-62
2022/08/11 15:17:09;;;;;;;1.20;1.10;;;26.40;63.70;;;;;;6213609;22;43305;-62
2022/08/11 15:24:18;;;;;;;1.20;1.20;;;26.40;63.50;;;;;;6186020;22;43758;-62
2022/08/11 15:25:18;;;;;;;2.88;1.20;;;26.40;63.60;;;;;;6213569;22;43759;-62
2022/08/11 15:39:32;;;;;;;1.23;1.05;;;26.50;63.50;;;;;;6183317;23;43365;-62
2022/08/11 15:48:01;;;;;;;1.00;1.00;;;26.50;63.50;;;;;;6182071;23;43266;-62
2022/08/11 15:50:37;;;;;;;1.35;1.25;;;26.50;63.40;;;;;;6182899;22;43327;-62
2022/08/11 15:53:10;;;;;;;1.17;1.00;;;26.50;63.40;;;;;;6182238;22;43994;-62
2022/08/11 15:55:38;;;;;;;1.50;1.40;;;26.60;63.40;;;;;;6182222;22;43323;-62
2022/08/11 16:04:12;;;;;;;2.47;1.10;;;26.60;63.00;;;;;;6181544;22;44002;-62
2022/08/11 16:06:52;;;;;;;1.50;1.40;;;26.60;63.20;;;;;;6182577;23;43877;-62
2022/08/11 16:09:59;;;;;;;1.27;1.00;;;26.60;63.30;;;;;;6182323;22;43812;-63
2022/08/11 16:12:34;;;;;;;1.63;1.33;;;26.60;63.30;;;;;;6163680;23;43428;-63
2022/08/11 16:17:58;;;;;;;1.40;1.30;;;26.50;63.00;;;;;;6182451;23;43631;-63
2022/08/11 16:20:27;;;;;;;1.30;1.20;;;26.50;63.10;;;;;;6182929;22;43331;-62
2022/08/11 16:23:01;;;;;;;1.10;1.10;;;26.50;63.10;;;;;;6182458;23;43278;-63
2022/08/11 16:25:33;;;;;;;1.60;1.20;;;26.50;63.00;;;;;;6182880;22;44618;-63
2022/08/11 16:28:23;;;;;;;1.27;1.00;;;26.50;63.10;;;;;;6186352;22;43280;-62
2022/08/11 16:30:52;;;;;;;1.50;1.40;;;26.50;63.20;;;;;;6212095;22;43325;-63
2022/08/11 16:33:23;;;;;;;1.58;1.48;;;26.50;63.30;;;;;;6213125;22;43297;-62
2022/08/11 16:38:58;;;;;;;1.20;1.20;;;26.40;63.20;;;;;;6212284;22;43604;-62
2022/08/11 16:47:19;;;;;;;1.35;1.25;;;26.40;63.50;;;;;;6212777;22;44909;-62
2022/08/11 16:50:08;;;;;;;1.67;1.27;;;26.40;63.60;;;;;;6208302;22;43662;-62
2022/08/11 16:52:36;;;;;;;2.53;1.30;;;26.40;63.70;;;;;;6204919;22;43245;-62
2022/08/11 16:55:04;;;;;;;1.50;1.20;;;26.40;63.60;;;;;;6208766;22;43449;-63
2022/08/11 17:00:19;;;;;;;2.15;1.48;;;26.30;63.60;;;;;;6207740;22;43886;-62
2022/08/11 17:14:19;;;;;;;1.25;1.15;;;26.30;63.90;;;;;;6207879;22;43284;-62
2022/08/11 17:17:11;;;;;;;1.02;1.02;;;26.30;63.80;;;;;;6209276;22;43762;-61
2022/08/11 17:19:50;;;;;;;1.33;1.23;;;26.30;63.80;;;;;;6207694;22;43783;-62
2022/08/11 17:25:27;;;;;;;1.30;1.15;;;26.30;63.80;;;;;;6209014;22;43323;-61
2022/08/11 17:27:56;;;;;;;1.25;1.13;;;26.30;63.80;;;;;;6208542;22;43435;-62
2022/08/11 17:35:27;;;;;;;1.30;1.20;;;26.30;64.00;;;;;;6208525;22;44842;-61
2022/08/11 17:36:02;;;;;;;2.17;1.30;;;26.20;64.00;;;;;;6209065;22;43330;-61
2022/08/11 17:38:32;;;;;;;2.17;1.25;;;26.20;63.90;;;;;;6208635;22;43409;-61
2022/08/11 17:49:38;;;;;;;1.15;1.15;;;26.20;64.00;;;;;;6207730;22;43748;-61
2022/08/11 18:00:55;;;;;;;1.48;1.10;;;26.20;64.10;;;;;;6208871;22;43263;-61
2022/08/11 18:03:28;;;;;;;1.20;1.20;;;26.20;64.00;;;;;;6179468;22;45664;-62
2022/08/11 18:05:59;;;;;;;1.40;1.30;;;26.20;64.10;;;;;;6208632;22;43148;-62
